Time;durP1;ratioP1;P1;durP2;ratioP2;P2;SDS_P1;SDS_P2;PMS_P1;PMS_P2;Temp;Humidity;BMP_temperature;BMP_pressure;BME280_temperature;BME280_humidity;BME280_pressure;Samples;Min_cycle;Max_cycle;Signal;HPM_P1;HPM_P2
2023/12/08 00:02:15;;;;;;;30.58;15.20;;;1.80;99.90;;;;;;5054069;28;20053;-77
2023/12/08 00:04:41;;;;;;;25.65;15.32;;;2.00;99.90;;;;;;5053902;28;20120;-77
2023/12/08 00:07:06;;;;;;;26.60;13.85;;;1.80;99.90;;;;;;5053985;28;20562;-77
2023/12/08 00:09:32;;;;;;;28.88;15.93;;;1.80;99.90;;;;;;5037535;28;20056;-77
2023/12/08 00:11:58;;;;;;;30.10;15.55;;;1.70;99.90;;;;;;5055319;28;20140;-77
2023/12/08 00:14:23;;;;;;;28.35;14.95;;;1.70;99.90;;;;;;5058801;28;20469;-77
2023/12/08 00:16:49;;;;;;;28.02;14.90;;;2.40;99.90;;;;;;5073571;28;20368;-77
2023/12/08 00:19:15;;;;;;;28.65;15.15;;;1.80;99.90;;;;;;5073670;28;20056;-77
2023/12/08 00:21:43;;;;;;;30.35;16.08;;;1.80;99.90;;;;;;5071910;28;20512;-77
2023/12/08 00:24:09;;;;;;;27.60;14.57;;;2.20;99.90;;;;;;5053334;28;20048;-78
2023/12/08 00:26:35;;;;;;;28.17;15.27;;;1.70;99.90;;;;;;5053947;28;20041;-77
2023/12/08 00:29:00;;;;;;;31.40;15.35;;;1.80;99.90;;;;;;5053654;28;20045;-77
2023/12/08 00:31:26;;;;;;;29.40;15.15;;;1.90;99.90;;;;;;5062361;28;20055;-77
2023/12/08 00:33:52;;;;;;;30.40;16.55;;;1.80;99.90;;;;;;5064608;28;20468;-77
2023/12/08 00:36:17;;;;;;;30.23;15.85;;;1.80;99.90;;;;;;5059123;28;20045;-77
2023/12/08 00:38:44;;;;;;;29.00;15.85;;;1.70;99.90;;;;;;5058930;28;20049;-77
2023/12/08 00:41:10;;;;;;;26.48;14.75;;;1.80;99.90;;;;;;5036785;28;20443;-77
2023/12/08 00:43:36;;;;;;;27.92;14.80;;;1.80;99.90;;;;;;5066147;28;20040;-77
2023/12/08 00:46:03;;;;;;;30.70;15.98;;;1.70;99.90;;;;;;5073226;28;20041;-77
2023/12/08 00:48:29;;;;;;;27.20;15.82;;;1.80;99.90;;;;;;5056909;28;20476;-77
2023/12/08 00:50:55;;;;;;;27.08;15.18;;;1.70;99.90;;;;;;5068662;28;20106;-77
2023/12/08 00:53:20;;;;;;;28.08;15.55;;;1.70;99.90;;;;;;5073423;28;20140;-77
2023/12/08 00:55:46;;;;;;;28.63;15.32;;;1.80;99.90;;;;;;5071846;28;20127;-78
2023/12/08 00:58:13;;;;;;;31.38;15.52;;;1.70;99.90;;;;;;5072151;28;20052;-77
2023/12/08 01:00:39;;;;;;;29.73;15.52;;;2.40;99.90;;;;;;5062933;28;20040;-77
2023/12/08 01:03:04;;;;;;;27.45;16.40;;;1.80;99.90;;;;;;5052864;28;20071;-78
2023/12/08 01:05:30;;;;;;;27.90;15.70;;;2.20;99.90;;;;;;5053120;28;20037;-77
2023/12/08 01:07:55;;;;;;;26.38;15.23;;;1.70;99.90;;;;;;5071122;28;20159;-77
2023/12/08 01:10:21;;;;;;;28.48;15.60;;;1.70;99.90;;;;;;5063603;28;20049;-77
2023/12/08 01:12:47;;;;;;;30.40;15.52;;;1.80;99.90;;;;;;5062290;28;20460;-79
2023/12/08 01:15:13;;;;;;;28.98;16.08;;;1.70;99.90;;;;;;5071693;28;20051;-77
2023/12/08 01:17:39;;;;;;;27.90;15.45;;;1.70;99.90;;;;;;5072542;28;20048;-77
2023/12/08 01:20:07;;;;;;;29.20;15.40;;;1.70;99.90;;;;;;5069046;28;20041;-77
2023/12/08 01:22:33;;;;;;;31.60;15.18;;;1.70;99.90;;;;;;5052383;28;20091;-77
2023/12/08 01:24:59;;;;;;;25.95;14.68;;;1.70;99.90;;;;;;5052831;28;20121;-77
2023/12/08 01:27:25;;;;;;;32.55;16.67;;;1.70;99.90;;;;;;5052339;28;20128;-77
2023/12/08 01:29:50;;;;;;;28.25;15.13;;;1.70;99.90;;;;;;5052344;28;20049;-77
2023/12/08 01:32:17;;;;;;;29.05;16.27;;;1.70;99.90;;;;;;5052371;28;20049;-77
2023/12/08 01:34:43;;;;;;;28.10;15.68;;;2.10;99.90;;;;;;5052047;28;20052;-77
2023/12/08 01:37:09;;;;;;;27.83;14.43;;;1.70;99.90;;;;;;5052393;28;20384;-77
2023/12/08 01:39:34;;;;;;;31.27;15.32;;;1.70;99.90;;;;;;5051567;28;20060;-77
2023/12/08 01:42:00;;;;;;;26.58;15.18;;;2.10;99.90;;;;;;5051427;28;20132;-77
2023/12/08 01:44:26;;;;;;;31.33;15.93;;;1.70;99.90;;;;;;5051303;28;20179;-78
2023/12/08 01:46:52;;;;;;;27.83;15.18;;;1.70;99.90;;;;;;5051634;28;20049;-76
2023/12/08 01:49:18;;;;;;;26.50;15.90;;;2.10;99.90;;;;;;5051235;28;20121;-76
2023/12/08 01:51:45;;;;;;;31.17;15.55;;;1.70;99.90;;;;;;5051388;28;20119;-76
2023/12/08 01:54:14;;;;;;;28.83;16.15;;;1.70;99.90;;;;;;5051624;28;20056;-76
2023/12/08 01:56:40;;;;;;;33.35;16.98;;;1.70;99.90;;;;;;5051161;28;20404;-76
2023/12/08 01:59:08;;;;;;;30.10;15.65;;;1.70;99.90;;;;;;5064395;28;20040;-76
2023/12/08 02:01:34;;;;;;;30.33;15.82;;;2.70;99.90;;;;;;5071986;28;20056;-76
2023/12/08 02:03:59;;;;;;;29.27;15.80;;;1.70;99.90;;;;;;5071464;28;20048;-77
2023/12/08 02:06:25;;;;;;;28.98;15.27;;;1.70;99.90;;;;;;5043853;28;20408;-76
2023/12/08 02:08:51;;;;;;;28.70;15.70;;;1.70;99.90;;;;;;5051530;28;20048;-77
2023/12/08 02:11:18;;;;;;;32.58;15.40;;;1.70;99.90;;;;;;5052374;28;20601;-77
2023/12/08 02:13:44;;;;;;;28.95;15.20;;;1.70;99.90;;;;;;5052027;28;20416;-77
2023/12/08 02:16:15;;;;;;;27.10;15.57;;;1.70;99.90;;;;;;5051715;28;20037;-77
2023/12/08 02:18:42;;;;;;;26.83;15.48;;;1.70;99.90;;;;;;5067264;28;20846;-77
2023/12/08 02:21:11;;;;;;;27.60;15.18;;;1.70;99.90;;;;;;5063313;28;20037;-77
2023/12/08 02:23:36;;;;;;;27.20;15.70;;;1.70;99.90;;;;;;5051209;28;20088;-77
2023/12/08 02:26:04;;;;;;;32.22;16.15;;;1.70;99.90;;;;;;5056426;28;20092;-77
2023/12/08 02:28:30;;;;;;;30.52;14.57;;;1.70;99.90;;;;;;5058487;28;20506;-77
2023/12/08 02:30:59;;;;;;;25.45;14.18;;;1.70;99.90;;;;;;5058594;28;20049;-77
2023/12/08 02:33:30;;;;;;;29.67;15.75;;;1.70;99.90;;;;;;5078464;28;20056;-77
2023/12/08 02:35:57;;;;;;;27.73;15.13;;;1.70;99.90;;;;;;5078261;28;20071;-77
2023/12/08 02:38:24;;;;;;;27.25;13.68;;;1.70;99.90;;;;;;5078227;28;20109;-77
2023/12/08 02:40:49;;;;;;;28.38;16.00;;;1.70;99.90;;;;;;5064627;28;20047;-77
2023/12/08 02:43:15;;;;;;;26.95;14.07;;;1.70;99.90;;;;;;5078058;28;20408;-77
2023/12/08 02:45:41;;;;;;;29.35;15.25;;;1.80;99.90;;;;;;5078373;28;20049;-77
2023/12/08 02:48:07;;;;;;;26.17;14.38;;;2.20;99.90;;;;;;5077536;28;20529;-77
2023/12/08 02:50:32;;;;;;;31.20;15.57;;;1.70;99.90;;;;;;5057878;28;20041;-77
2023/12/08 02:52:58;;;;;;;28.83;14.63;;;2.30;99.90;;;;;;5058468;28;20088;-77
2023/12/08 02:55:24;;;;;;;29.50;16.15;;;1.70;99.90;;;;;;5058247;28;20048;-77
2023/12/08 02:57:49;;;;;;;27.98;15.75;;;1.80;99.90;;;;;;5059744;28;20092;-77
2023/12/08 03:00:16;;;;;;;25.60;14.73;;;2.20;99.90;;;;;;5066231;28;20055;-77
2023/12/08 03:02:42;;;;;;;30.73;15.32;;;1.80;99.90;;;;;;5078281;28;20045;-77
2023/12/08 03:05:08;;;;;;;27.08;13.90;;;1.80;99.90;;;;;;5078002;28;20118;-77
2023/12/08 03:07:33;;;;;;;24.95;13.70;;;1.80;99.90;;;;;;5077871;28;20103;-77
2023/12/08 03:09:59;;;;;;;28.00;14.23;;;2.00;99.90;;;;;;5077967;28;20105;-77
2023/12/08 03:12:25;;;;;;;25.52;13.60;;;1.80;99.90;;;;;;5078174;28;20041;-77
2023/12/08 03:14:50;;;;;;;27.13;14.10;;;1.80;99.90;;;;;;5068113;28;20074;-77
2023/12/08 03:17:16;;;;;;;24.08;13.20;;;1.80;99.90;;;;;;5057859;28;20130;-77
2023/12/08 03:19:42;;;;;;;24.80;14.02;;;1.80;99.90;;;;;;5057857;28;20063;-77
2023/12/08 03:22:08;;;;;;;27.08;14.98;;;1.80;99.90;;;;;;5058357;28;20045;-77
2023/12/08 03:24:33;;;;;;;26.52;13.57;;;1.90;99.90;;;;;;5076307;28;20094;-77
2023/12/08 03:26:59;;;;;;;26.92;15.10;;;1.80;99.90;;;;;;5076427;28;20052;-77
2023/12/08 03:29:25;;;;;;;24.73;13.95;;;1.80;99.90;;;;;;5053707;28;20091;-77
2023/12/08 03:31:50;;;;;;;28.75;14.70;;;3.00;99.90;;;;;;5057825;28;20114;-77
2023/12/08 03:34:16;;;;;;;25.20;14.25;;;1.80;99.90;;;;;;5057939;28;20131;-76
2023/12/08 03:36:41;;;;;;;25.95;13.88;;;1.80;99.90;;;;;;5056477;28;20048;-77
2023/12/08 03:39:07;;;;;;;27.00;14.55;;;1.80;99.90;;;;;;5054405;28;20080;-78
2023/12/08 03:41:33;;;;;;;26.33;13.63;;;1.80;99.90;;;;;;5054544;28;20526;-77
2023/12/08 03:43:58;;;;;;;27.85;14.13;;;1.80;99.90;;;;;;5054300;28;20044;-77
2023/12/08 03:46:24;;;;;;;26.73;13.60;;;1.80;99.90;;;;;;5054779;28;20044;-77
2023/12/08 03:48:50;;;;;;;24.23;13.70;;;1.80;99.90;;;;;;5054812;28;20369;-77
2023/12/08 03:51:15;;;;;;;25.17;13.63;;;1.80;99.90;;;;;;5054597;28;20045;-77
2023/12/08 03:53:41;;;;;;;26.83;13.57;;;1.80;99.90;;;;;;5054698;28;20044;-77
2023/12/08 03:56:07;;;;;;;24.80;13.60;;;1.80;99.90;;;;;;5054273;28;20044;-77
2023/12/08 03:58:33;;;;;;;28.08;14.25;;;1.80;99.90;;;;;;5054601;28;20400;-77
2023/12/08 04:00:59;;;;;;;25.38;13.07;;;1.80;99.90;;;;;;5038039;28;20063;-77
2023/12/08 04:03:24;;;;;;;28.50;14.63;;;1.80;99.90;;;;;;5054426;28;20041;-77
2023/12/08 04:05:50;;;;;;;25.27;13.38;;;1.80;99.90;;;;;;5054438;28;20044;-77
2023/12/08 04:08:16;;;;;;;26.63;14.55;;;1.80;99.90;;;;;;5053945;28;20056;-77
2023/12/08 04:10:42;;;;;;;26.83;13.30;;;1.80;99.90;;;;;;5054502;28;20374;-77
2023/12/08 04:13:08;;;;;;;26.88;14.10;;;1.80;99.90;;;;;;5054091;28;20047;-77
2023/12/08 04:15:33;;;;;;;25.38;13.55;;;1.80;99.90;;;;;;5054177;28;20444;-77
2023/12/08 04:17:59;;;;;;;23.75;13.50;;;1.80;99.90;;;;;;5053603;28;20052;-77
2023/12/08 04:20:25;;;;;;;24.83;13.88;;;1.80;99.90;;;;;;5054087;28;20397;-77
2023/12/08 04:22:50;;;;;;;27.88;15.23;;;1.80;99.90;;;;;;5054041;28;20465;-77
2023/12/08 04:25:16;;;;;;;30.02;16.13;;;1.80;99.90;;;;;;5053619;28;20048;-77
2023/12/08 04:27:42;;;;;;;25.75;13.90;;;1.80;99.90;;;;;;5068721;28;20049;-77
2023/12/08 04:30:07;;;;;;;25.25;14.88;;;2.60;99.90;;;;;;5073905;28;20049;-77
2023/12/08 04:32:35;;;;;;;27.15;15.38;;;1.80;99.90;;;;;;5073864;28;20045;-77
2023/12/08 04:35:00;;;;;;;27.42;15.82;;;1.70;99.90;;;;;;5053793;28;20037;-77
2023/12/08 04:37:26;;;;;;;28.05;14.90;;;1.70;99.90;;;;;;5067913;28;20441;-77
2023/12/08 04:39:52;;;;;;;29.08;15.07;;;1.70;99.90;;;;;;5073207;28;20476;-77
2023/12/08 04:42:18;;;;;;;27.65;15.32;;;1.70;99.90;;;;;;5063712;28;20175;-77
2023/12/08 04:44:43;;;;;;;27.95;14.70;;;1.70;99.90;;;;;;5053578;28;20048;-77
2023/12/08 04:47:10;;;;;;;28.23;14.15;;;1.70;99.90;;;;;;5054670;28;20076;-77
2023/12/08 04:49:36;;;;;;;31.25;15.40;;;1.60;99.90;;;;;;5055464;28;20056;-77
2023/12/08 04:52:02;;;;;;;28.58;15.38;;;2.30;99.90;;;;;;5073559;28;20781;-77
2023/12/08 04:54:28;;;;;;;29.70;16.02;;;1.60;99.90;;;;;;5073544;28;20454;-78
2023/12/08 04:56:53;;;;;;;26.95;14.48;;;2.60;99.90;;;;;;5073161;28;20048;-78
2023/12/08 04:59:19;;;;;;;27.17;15.02;;;1.60;99.90;;;;;;5073394;28;20443;-77
2023/12/08 05:01:50;;;;;;;27.85;15.60;;;1.60;99.90;;;;;;5072998;28;20444;-77
2023/12/08 05:04:17;;;;;;;29.00;15.02;;;1.60;99.90;;;;;;5059446;28;20511;-77
2023/12/08 05:06:43;;;;;;;27.20;14.48;;;1.60;99.90;;;;;;5052926;28;20128;-77
2023/12/08 05:09:10;;;;;;;25.80;14.25;;;1.60;99.90;;;;;;5052994;28;20119;-76
2023/12/08 05:11:36;;;;;;;27.95;14.48;;;1.60;99.90;;;;;;5052874;28;20172;-76
2023/12/08 05:14:02;;;;;;;28.08;15.38;;;1.60;99.90;;;;;;5057876;28;20102;-76
2023/12/08 05:16:29;;;;;;;26.95;15.13;;;1.60;99.90;;;;;;5072528;28;20075;-77
2023/12/08 05:18:54;;;;;;;25.85;14.95;;;1.60;99.90;;;;;;5072290;28;20064;-76
2023/12/08 05:21:20;;;;;;;27.80;15.32;;;1.60;99.90;;;;;;5072556;28;20114;-76
2023/12/08 05:23:46;;;;;;;30.67;16.00;;;1.80;99.90;;;;;;5056160;28;20044;-76
2023/12/08 05:26:11;;;;;;;30.23;15.23;;;1.60;99.90;;;;;;5053027;28;20067;-77
2023/12/08 05:28:37;;;;;;;29.17;15.35;;;1.60;99.90;;;;;;5059154;28;20479;-77
2023/12/08 05:31:04;;;;;;;26.08;14.57;;;1.60;99.90;;;;;;5072584;28;20040;-77
2023/12/08 05:33:29;;;;;;;30.13;16.23;;;1.60;99.90;;;;;;5072714;28;20083;-77
2023/12/08 05:35:55;;;;;;;30.70;16.20;;;1.60;99.90;;;;;;5072314;28;20067;-77
2023/12/08 05:38:21;;;;;;;31.48;16.35;;;1.60;99.90;;;;;;5072424;28;20123;-77
2023/12/08 05:40:47;;;;;;;35.83;16.80;;;1.60;99.90;;;;;;5061420;28;20553;-77
2023/12/08 05:43:13;;;;;;;28.33;16.10;;;2.00;99.90;;;;;;5052236;28;20072;-77
2023/12/08 05:45:38;;;;;;;29.60;14.93;;;1.60;99.90;;;;;;5061198;28;20051;-77
2023/12/08 05:48:04;;;;;;;28.73;15.90;;;1.60;99.90;;;;;;5071861;28;20045;-77
2023/12/08 05:50:30;;;;;;;33.97;16.42;;;1.60;99.90;;;;;;5063341;28;20080;-77
2023/12/08 05:52:56;;;;;;;27.75;14.77;;;1.60;99.90;;;;;;5052592;28;20520;-77
2023/12/08 05:55:22;;;;;;;32.45;16.48;;;1.60;99.90;;;;;;5052066;28;20619;-77
2023/12/08 05:57:48;;;;;;;28.67;15.93;;;1.60;99.90;;;;;;5035906;28;20045;-77
2023/12/08 06:00:17;;;;;;;27.75;15.05;;;1.70;99.90;;;;;;5051985;28;20451;-77
2023/12/08 06:02:43;;;;;;;33.63;16.45;;;1.50;99.90;;;;;;5070287;28;20119;-77
2023/12/08 06:05:10;;;;;;;32.40;16.05;;;1.50;99.90;;;;;;5071732;28;20044;-77
2023/12/08 06:07:36;;;;;;;33.13;17.38;;;1.50;99.90;;;;;;5070636;28;20044;-77
2023/12/08 06:10:02;;;;;;;28.40;14.60;;;1.50;99.90;;;;;;5051508;28;20506;-79
2023/12/08 06:12:28;;;;;;;32.80;16.65;;;1.50;99.90;;;;;;5063426;28;20407;-76
2023/12/08 06:14:54;;;;;;;29.02;15.38;;;1.50;99.90;;;;;;5051324;28;20041;-77
2023/12/08 06:17:20;;;;;;;29.08;15.75;;;1.50;99.90;;;;;;5057237;28;20049;-77
2023/12/08 06:19:46;;;;;;;29.10;15.55;;;1.50;99.90;;;;;;5033826;28;20052;-77
2023/12/08 06:22:11;;;;;;;31.23;16.33;;;1.90;99.90;;;;;;5049875;28;20048;-78
2023/12/08 06:24:37;;;;;;;30.27;16.00;;;1.50;99.90;;;;;;5049986;28;20037;-79
2023/12/08 06:27:03;;;;;;;31.25;15.45;;;1.50;99.90;;;;;;5068112;28;20072;-78
2023/12/08 06:29:29;;;;;;;34.40;17.60;;;1.50;99.90;;;;;;5071685;28;20174;-78
2023/12/08 06:31:55;;;;;;;28.65;15.95;;;1.50;99.90;;;;;;5067455;28;20132;-77
2023/12/08 06:34:20;;;;;;;31.55;16.25;;;1.50;99.90;;;;;;5050971;28;20131;-77
2023/12/08 06:36:48;;;;;;;30.90;16.92;;;1.50;99.90;;;;;;5051269;28;20059;-77
2023/12/08 06:39:16;;;;;;;29.20;15.98;;;1.60;99.90;;;;;;5050737;28;20053;-77
2023/12/08 06:41:42;;;;;;;32.60;17.58;;;1.50;99.90;;;;;;5062523;28;20041;-79
2023/12/08 06:44:07;;;;;;;33.42;17.10;;;1.50;99.90;;;;;;5051236;28;20136;-77
2023/12/08 06:46:33;;;;;;;31.50;16.27;;;1.50;99.90;;;;;;5051236;28;20112;-77
2023/12/08 06:48:59;;;;;;;29.60;16.15;;;1.50;99.90;;;;;;5050982;28;20041;-78
2023/12/08 06:51:25;;;;;;;35.53;18.02;;;1.50;99.90;;;;;;5050788;28;20103;-79
2023/12/08 06:53:51;;;;;;;35.58;15.93;;;1.50;99.90;;;;;;5037150;28;20071;-79
2023/12/08 06:56:16;;;;;;;29.98;15.10;;;1.90;99.90;;;;;;5057647;28;20045;-79
2023/12/08 06:58:42;;;;;;;30.65;16.42;;;1.60;99.90;;;;;;5036896;28;20088;-77
2023/12/08 07:01:08;;;;;;;32.70;16.85;;;1.60;99.90;;;;;;5060056;28;20055;-76
2023/12/08 07:03:33;;;;;;;33.05;16.90;;;1.50;99.90;;;;;;5058737;28;20048;-75
2023/12/08 07:05:59;;;;;;;36.05;15.88;;;1.50;99.90;;;;;;5054902;28;20073;-76
2023/12/08 07:08:24;;;;;;;32.85;16.42;;;1.50;99.90;;;;;;5054452;28;20045;-76
2023/12/08 07:10:50;;;;;;;32.58;16.23;;;1.50;99.90;;;;;;5058221;28;20051;-76
2023/12/08 07:13:16;;;;;;;26.88;14.38;;;1.50;99.90;;;;;;5069729;28;20080;-76
2023/12/08 07:15:41;;;;;;;32.33;17.70;;;1.50;99.90;;;;;;5073727;28;20529;-76
2023/12/08 07:18:07;;;;;;;33.10;16.65;;;1.50;99.90;;;;;;5074059;28;20396;-75
2023/12/08 07:20:32;;;;;;;33.03;17.95;;;2.20;99.90;;;;;;5074398;28;20040;-75
2023/12/08 07:22:58;;;;;;;34.17;16.90;;;1.90;99.90;;;;;;5074794;28;20492;-75
2023/12/08 07:25:24;;;;;;;32.55;16.52;;;1.50;99.90;;;;;;5073736;28;20484;-76
2023/12/08 07:27:49;;;;;;;35.95;17.05;;;1.90;99.90;;;;;;5074064;28;20074;-75
2023/12/08 07:30:15;;;;;;;31.48;16.98;;;1.50;99.90;;;;;;5059962;28;20102;-75
2023/12/08 07:32:41;;;;;;;33.47;15.73;;;1.50;99.90;;;;;;5053759;28;20048;-75
2023/12/08 07:35:07;;;;;;;34.45;17.17;;;2.50;99.90;;;;;;5056395;28;20052;-75
2023/12/08 07:37:32;;;;;;;35.53;17.83;;;1.50;99.90;;;;;;5073988;28;20105;-74
2023/12/08 07:39:58;;;;;;;35.60;17.40;;;1.50;99.90;;;;;;5062022;28;20045;-76
2023/12/08 07:42:24;;;;;;;32.53;16.45;;;1.50;99.90;;;;;;5053747;28;20049;-75
2023/12/08 07:44:52;;;;;;;32.40;17.30;;;1.50;99.90;;;;;;5053488;28;20124;-75
2023/12/08 07:47:18;;;;;;;30.40;16.38;;;1.50;99.90;;;;;;5063135;28;20492;-75
2023/12/08 07:49:44;;;;;;;35.85;18.83;;;2.20;99.90;;;;;;5054942;28;20045;-75
2023/12/08 07:52:12;;;;;;;33.85;16.45;;;1.50;99.90;;;;;;5054796;28;20095;-75
2023/12/08 07:54:37;;;;;;;32.03;17.08;;;1.50;99.90;;;;;;5053765;28;20120;-75
2023/12/08 07:57:03;;;;;;;34.53;17.25;;;1.50;99.90;;;;;;5053821;28;20084;-75
2023/12/08 07:59:29;;;;;;;34.78;17.52;;;1.50;99.90;;;;;;5053553;28;20052;-75
2023/12/08 08:01:54;;;;;;;32.63;16.38;;;1.50;99.90;;;;;;5054595;28;20082;-75
2023/12/08 08:04:20;;;;;;;31.75;16.67;;;1.50;99.90;;;;;;5065239;28;20052;-75
2023/12/08 08:06:46;;;;;;;35.13;16.90;;;1.60;99.90;;;;;;5053620;28;20424;-75
2023/12/08 08:09:11;;;;;;;34.47;17.48;;;1.60;99.90;;;;;;5053302;28;20518;-76
2023/12/08 08:11:37;;;;;;;29.25;15.13;;;1.60;99.90;;;;;;5052837;28;20049;-76
2023/12/08 08:14:02;;;;;;;32.50;16.55;;;1.60;99.90;;;;;;5052253;28;20060;-75
2023/12/08 08:16:28;;;;;;;32.42;16.55;;;1.60;99.90;;;;;;5052906;28;20055;-74
2023/12/08 08:18:54;;;;;;;34.20;16.55;;;2.10;99.90;;;;;;5064227;28;20056;-75
2023/12/08 08:21:19;;;;;;;33.17;18.13;;;1.60;99.90;;;;;;5066826;28;20041;-75
2023/12/08 08:23:45;;;;;;;30.33;16.67;;;1.60;99.90;;;;;;5052890;28;20049;-75
2023/12/08 08:26:11;;;;;;;33.80;16.90;;;2.10;99.90;;;;;;5052915;28;20049;-75
2023/12/08 08:28:37;;;;;;;37.25;18.25;;;1.60;99.90;;;;;;5052688;28;20059;-75
2023/12/08 08:31:03;;;;;;;35.05;16.60;;;1.90;99.90;;;;;;5053177;28;20080;-75
2023/12/08 08:33:28;;;;;;;32.58;17.33;;;1.60;99.90;;;;;;5053274;28;20080;-75
2023/12/08 08:35:54;;;;;;;31.23;17.13;;;1.60;99.90;;;;;;5053540;28;20057;-76
2023/12/08 08:38:20;;;;;;;32.42;17.23;;;1.80;99.90;;;;;;5053701;28;20084;-75
2023/12/08 08:40:45;;;;;;;36.25;19.33;;;2.60;99.90;;;;;;5053743;28;20451;-75
2023/12/08 08:43:11;;;;;;;31.92;16.90;;;1.60;99.90;;;;;;5053284;28;20863;-75
2023/12/08 08:45:37;;;;;;;31.88;17.40;;;1.60;99.90;;;;;;5052990;28;20088;-76
2023/12/08 08:48:03;;;;;;;34.38;18.58;;;1.60;99.90;;;;;;5054785;28;20055;-75
2023/12/08 08:50:29;;;;;;;37.00;18.70;;;1.60;99.90;;;;;;5052584;28;20045;-75
2023/12/08 08:52:54;;;;;;;35.03;17.75;;;1.70;99.90;;;;;;5052267;28;20055;-75
2023/12/08 08:55:20;;;;;;;33.70;17.73;;;1.70;99.90;;;;;;5053647;28;20048;-75
2023/12/08 08:57:47;;;;;;;34.00;17.70;;;1.70;99.90;;;;;;5052625;28;20052;-75
2023/12/08 09:00:14;;;;;;;31.45;17.20;;;1.70;99.90;;;;;;5062855;28;20040;-75
2023/12/08 09:02:41;;;;;;;31.48;18.48;;;1.70;99.90;;;;;;5062443;28;20079;-75
2023/12/08 09:05:07;;;;;;;33.05;17.73;;;1.70;99.90;;;;;;5053629;28;20133;-75
2023/12/08 09:07:33;;;;;;;31.85;16.83;;;1.70;99.90;;;;;;5072430;28;20040;-75
2023/12/08 09:09:59;;;;;;;31.40;15.57;;;1.70;99.90;;;;;;5055163;28;20480;-75
2023/12/08 09:12:24;;;;;;;37.20;18.17;;;1.70;99.90;;;;;;5052064;28;20389;-75
2023/12/08 09:14:50;;;;;;;31.50;16.77;;;1.70;99.90;;;;;;5052584;28;20135;-74
2023/12/08 09:17:15;;;;;;;36.03;18.05;;;1.70;99.90;;;;;;5052049;28;20543;-75
2023/12/08 09:19:41;;;;;;;33.47;17.42;;;1.70;99.90;;;;;;5065491;28;20392;-75
2023/12/08 09:22:07;;;;;;;31.25;16.75;;;1.80;99.90;;;;;;5072012;28;20049;-77
2023/12/08 09:24:32;;;;;;;32.67;17.63;;;1.80;99.90;;;;;;5071770;28;20051;-75
2023/12/08 09:27:00;;;;;;;30.92;16.92;;;1.80;99.90;;;;;;5073134;28;20044;-75
2023/12/08 09:29:26;;;;;;;32.47;17.48;;;1.80;99.90;;;;;;5067076;28;20111;-75
2023/12/08 09:31:52;;;;;;;33.60;17.65;;;1.80;99.90;;;;;;5052147;28;20064;-75
2023/12/08 09:34:18;;;;;;;31.75;16.63;;;1.80;99.90;;;;;;5071317;28;20049;-74
2023/12/08 09:36:44;;;;;;;32.17;16.75;;;1.80;99.90;;;;;;5071431;28;20052;-75
2023/12/08 09:39:10;;;;;;;34.83;18.77;;;1.80;99.90;;;;;;5071755;28;20040;-75
2023/12/08 09:41:39;;;;;;;35.15;16.40;;;2.90;99.90;;;;;;5055268;28;20044;-74
2023/12/08 09:44:12;;;;;;;30.52;17.23;;;1.90;99.90;;;;;;5071233;28;20044;-75
2023/12/08 09:46:45;;;;;;;33.22;16.75;;;1.90;99.90;;;;;;5071504;28;20049;-75
2023/12/08 09:49:20;;;;;;;30.48;15.48;;;1.90;99.90;;;;;;5071532;28;20036;-74
2023/12/08 09:51:46;;;;;;;34.35;17.17;;;1.90;99.90;;;;;;5072022;28;20150;-75
2023/12/08 09:54:12;;;;;;;33.60;17.33;;;1.90;99.90;;;;;;5071314;28;20465;-75
2023/12/08 09:56:38;;;;;;;36.08;17.13;;;1.90;99.90;;;;;;5055340;28;20135;-74
2023/12/08 09:59:05;;;;;;;31.83;16.25;;;1.90;99.90;;;;;;5071010;28;20479;-74
2023/12/08 10:01:31;;;;;;;31.55;17.08;;;1.90;99.90;;;;;;5071650;28;20097;-75
2023/12/08 10:03:56;;;;;;;28.55;16.10;;;1.90;99.90;;;;;;5070577;28;20048;-74
2023/12/08 10:06:26;;;;;;;34.33;18.02;;;1.90;99.90;;;;;;5071449;28;20097;-75
2023/12/08 10:08:51;;;;;;;33.15;17.63;;;1.90;99.90;;;;;;5071497;28;20048;-74
2023/12/08 10:11:17;;;;;;;35.67;17.63;;;2.00;99.90;;;;;;5064388;28;20501;-75
2023/12/08 10:13:42;;;;;;;32.40;16.73;;;1.90;99.90;;;;;;5054471;28;20044;-74
2023/12/08 10:16:08;;;;;;;33.10;16.75;;;2.30;99.90;;;;;;5071286;28;20051;-74
2023/12/08 10:18:34;;;;;;;32.13;17.35;;;1.90;99.90;;;;;;5070865;28;20049;-75
2023/12/08 10:21:17;;;;;;;39.83;18.05;;;2.00;99.90;;;;;;5072349;28;20060;-74
2023/12/08 10:23:44;;;;;;;35.40;17.27;;;2.00;99.90;;;;;;5070932;28;20089;-74
2023/12/08 10:26:12;;;;;;;33.25;18.23;;;2.00;99.90;;;;;;5054481;28;20053;-74
2023/12/08 10:28:38;;;;;;;33.08;18.58;;;1.90;99.90;;;;;;5071402;28;20055;-74
2023/12/08 10:31:05;;;;;;;30.45;16.85;;;1.90;99.90;;;;;;5052707;28;20045;-74
2023/12/08 10:33:30;;;;;;;35.97;18.08;;;1.90;99.90;;;;;;5050179;28;20075;-74
2023/12/08 10:35:56;;;;;;;29.42;16.15;;;2.00;99.90;;;;;;5049448;28;20056;-74
2023/12/08 10:38:22;;;;;;;36.80;19.27;;;2.00;99.90;;;;;;5049544;28;20055;-76
2023/12/08 10:40:50;;;;;;;36.50;19.23;;;2.00;99.90;;;;;;5059741;28;20051;-75
2023/12/08 10:43:22;;;;;;;31.33;17.75;;;2.00;99.90;;;;;;5070551;28;20052;-74
2023/12/08 10:45:55;;;;;;;34.15;18.67;;;1.90;99.90;;;;;;5070125;28;20483;-75
2023/12/08 10:48:23;;;;;;;34.95;18.15;;;2.10;99.90;;;;;;5055406;28;20087;-74
2023/12/08 10:50:50;;;;;;;35.83;19.15;;;2.00;99.90;;;;;;5053511;28;20051;-77
2023/12/08 10:53:17;;;;;;;32.83;17.85;;;2.00;99.90;;;;;;5053108;28;20095;-75
2023/12/08 10:55:46;;;;;;;38.47;18.67;;;2.50;99.90;;;;;;5053509;28;20120;-74
2023/12/08 10:58:15;;;;;;;38.63;18.92;;;2.00;99.90;;;;;;5053548;28;20049;-74
2023/12/08 11:00:42;;;;;;;35.70;18.35;;;2.00;99.90;;;;;;5039920;28;20059;-74
2023/12/08 11:03:09;;;;;;;32.22;16.60;;;2.00;99.90;;;;;;5058540;28;20044;-75
2023/12/08 11:05:47;;;;;;;39.58;18.85;;;2.00;99.90;;;;;;5058512;28;20044;-75
2023/12/08 11:08:17;;;;;;;36.15;18.30;;;2.00;99.90;;;;;;5070785;28;20671;-75
2023/12/08 11:10:46;;;;;;;37.50;18.60;;;2.80;99.90;;;;;;5073227;28;20440;-77
2023/12/08 11:13:37;;;;;;;33.10;16.98;;;2.10;99.90;;;;;;5072238;28;20056;-78
2023/12/08 11:16:23;;;;;;;39.97;19.77;;;2.10;99.90;;;;;;5071247;28;20114;-75
2023/12/08 11:18:50;;;;;;;35.47;17.63;;;2.10;99.90;;;;;;5065134;28;20045;-75
2023/12/08 11:21:17;;;;;;;36.35;18.33;;;2.10;99.90;;;;;;5062628;28;20519;-74
2023/12/08 11:23:44;;;;;;;35.55;18.30;;;2.10;99.90;;;;;;5063455;28;20066;-73
2023/12/08 11:26:38;;;;;;;39.85;18.85;;;2.10;99.90;;;;;;5074431;28;20070;-73
2023/12/08 11:29:22;;;;;;;34.85;18.25;;;2.10;99.90;;;;;;5059813;28;20388;-75
2023/12/08 11:32:07;;;;;;;39.10;19.92;;;2.20;99.90;;;;;;5054246;28;20063;-73
2023/12/08 11:34:53;;;;;;;38.15;20.00;;;2.10;99.90;;;;;;5052760;28;20087;-74
2023/12/08 11:37:20;;;;;;;36.75;18.50;;;2.20;99.90;;;;;;5059840;28;20048;-77
2023/12/08 11:39:46;;;;;;;37.95;18.45;;;2.20;99.90;;;;;;5057262;28;20044;-74
2023/12/08 11:42:16;;;;;;;40.65;20.33;;;2.20;99.90;;;;;;5053690;28;20058;-75
2023/12/08 11:44:46;;;;;;;39.45;19.75;;;2.20;99.90;;;;;;5053511;28;20072;-74
2023/12/08 11:47:16;;;;;;;37.35;18.40;;;2.20;99.90;;;;;;5059690;28;20080;-74
2023/12/08 11:49:44;;;;;;;40.30;19.63;;;2.20;99.90;;;;;;5059000;28;20115;-76
2023/12/08 11:52:26;;;;;;;41.20;19.73;;;2.60;99.90;;;;;;5074745;28;20049;-75
2023/12/08 11:55:24;;;;;;;45.85;21.10;;;2.20;99.90;;;;;;5073632;28;20048;-75
2023/12/08 11:58:01;;;;;;;46.03;19.70;;;2.30;99.90;;;;;;5055186;28;20068;-75
2023/12/08 12:00:29;;;;;;;34.17;18.23;;;2.20;99.90;;;;;;5064923;28;20072;-75
2023/12/08 12:02:56;;;;;;;44.00;21.48;;;2.20;99.90;;;;;;5061118;28;20037;-75
2023/12/08 12:05:22;;;;;;;39.63;19.08;;;2.20;99.90;;;;;;5052535;28;20132;-75
2023/12/08 12:07:50;;;;;;;38.05;18.98;;;2.20;99.90;;;;;;5055211;28;20045;-75
2023/12/08 12:10:18;;;;;;;48.22;22.60;;;2.30;99.90;;;;;;5068258;28;20079;-75
2023/12/08 12:13:03;;;;;;;45.58;21.35;;;2.50;99.90;;;;;;5068347;28;20407;-75
2023/12/08 12:15:30;;;;;;;49.55;22.73;;;2.80;99.90;;;;;;5064138;28;20094;-75
2023/12/08 12:17:56;;;;;;;44.47;20.85;;;2.30;99.90;;;;;;5053691;28;20052;-75
2023/12/08 12:20:22;;;;;;;40.13;17.77;;;2.50;99.90;;;;;;5054266;28;20123;-76
2023/12/08 12:22:48;;;;;;;40.60;18.83;;;2.30;99.90;;;;;;5057544;28;20044;-75
2023/12/08 12:25:13;;;;;;;44.90;21.15;;;2.30;99.90;;;;;;5063949;28;20041;-74
2023/12/08 12:27:45;;;;;;;50.35;21.67;;;2.30;99.90;;;;;;5055992;28;20048;-74
2023/12/08 12:30:11;;;;;;;44.25;20.05;;;2.30;99.90;;;;;;5060421;28;20048;-74
2023/12/08 12:32:37;;;;;;;50.92;22.05;;;2.30;99.90;;;;;;5059588;28;20493;-74
2023/12/08 12:35:04;;;;;;;46.60;20.52;;;2.50;99.90;;;;;;5062468;28;20372;-75